sensor_id;sensor_type;location;lat;lon;timestamp;P1;durP1;ratioP1;P2;durP2;ratioP2
9461;SDS011;4769;42.660;23.262;2023-05-10T00:01:56;6.60;;;5.90;;
9461;SDS011;4769;42.660;23.262;2023-05-10T00:04:22;6.50;;;5.97;;
9461;SDS011;4769;42.660;23.262;2023-05-10T00:06:47;6.67;;;5.97;;
9461;SDS011;4769;42.660;23.262;2023-05-10T00:09:16;6.53;;;6.03;;
9461;SDS011;4769;42.660;23.262;2023-05-10T00:11:41;6.67;;;6.07;;
9461;SDS011;4769;42.660;23.262;2023-05-10T00:14:07;7.20;;;6.60;;
9461;SDS011;4769;42.660;23.262;2023-05-10T00:16:33;7.30;;;6.70;;
9461;SDS011;4769;42.660;23.262;2023-05-10T00:18:58;6.87;;;6.27;;
9461;SDS011;4769;42.660;23.262;2023-05-10T00:21:24;7.30;;;6.30;;
9461;SDS011;4769;42.660;23.262;2023-05-10T00:23:50;7.73;;;7.03;;
9461;SDS011;4769;42.660;23.262;2023-05-10T00:26:18;7.27;;;6.67;;
9461;SDS011;4769;42.660;23.262;2023-05-10T00:28:44;7.77;;;7.10;;
9461;SDS011;4769;42.660;23.262;2023-05-10T00:31:09;7.43;;;6.77;;
9461;SDS011;4769;42.660;23.262;2023-05-10T00:33:35;7.50;;;6.80;;
9461;SDS011;4769;42.660;23.262;2023-05-10T00:36:01;7.60;;;6.90;;
9461;SDS011;4769;42.660;23.262;2023-05-10T00:38:27;7.93;;;7.23;;
9461;SDS011;4769;42.660;23.262;2023-05-10T00:40:52;7.70;;;7.00;;
9461;SDS011;4769;42.660;23.262;2023-05-10T00:43:21;7.83;;;7.17;;
9461;SDS011;4769;42.660;23.262;2023-05-10T00:45:46;7.43;;;6.73;;
9461;SDS011;4769;42.660;23.262;2023-05-10T00:48:12;7.93;;;7.13;;
9461;SDS011;4769;42.660;23.262;2023-05-10T00:50:38;7.57;;;6.87;;
9461;SDS011;4769;42.660;23.262;2023-05-10T00:53:04;7.43;;;6.73;;
9461;SDS011;4769;42.660;23.262;2023-05-10T00:55:30;7.93;;;7.17;;
9461;SDS011;4769;42.660;23.262;2023-05-10T00:57:56;8.23;;;7.53;;
9461;SDS011;4769;42.660;23.262;2023-05-10T01:00:25;8.80;;;8.07;;
9461;SDS011;4769;42.660;23.262;2023-05-10T01:02:51;8.87;;;8.00;;
9461;SDS011;4769;42.660;23.262;2023-05-10T01:05:18;10.13;;;7.97;;
9461;SDS011;4769;42.660;23.262;2023-05-10T01:07:44;7.90;;;7.20;;
9461;SDS011;4769;42.660;23.262;2023-05-10T01:10:10;10.23;;;7.90;;
9461;SDS011;4769;42.660;23.262;2023-05-10T01:12:36;9.20;;;8.30;;
9461;SDS011;4769;42.660;23.262;2023-05-10T01:15:05;7.90;;;7.20;;
9461;SDS011;4769;42.660;23.262;2023-05-10T01:17:34;8.50;;;7.80;;
9461;SDS011;4769;42.660;23.262;2023-05-10T01:20:00;8.53;;;7.83;;
9461;SDS011;4769;42.660;23.262;2023-05-10T01:25:27;8.10;;;7.40;;
9461;SDS011;4769;42.660;23.262;2023-05-10T01:28:15;8.30;;;7.60;;
9461;SDS011;4769;42.660;23.262;2023-05-10T01:31:06;9.37;;;8.47;;
9461;SDS011;4769;42.660;23.262;2023-05-10T01:33:46;8.30;;;7.60;;
9461;SDS011;4769;42.660;23.262;2023-05-10T01:36:19;8.30;;;7.60;;
9461;SDS011;4769;42.660;23.262;2023-05-10T01:38:50;7.60;;;6.90;;
9461;SDS011;4769;42.660;23.262;2023-05-10T01:41:24;7.77;;;7.03;;
9461;SDS011;4769;42.660;23.262;2023-05-10T01:44:01;7.90;;;7.20;;
9461;SDS011;4769;42.660;23.262;2023-05-10T01:46:35;7.07;;;6.47;;
9461;SDS011;4769;42.660;23.262;2023-05-10T01:49:06;7.40;;;6.80;;
9461;SDS011;4769;42.660;23.262;2023-05-10T01:51:35;6.93;;;6.27;;
9461;SDS011;4769;42.660;23.262;2023-05-10T01:54:06;6.80;;;6.20;;
9461;SDS011;4769;42.660;23.262;2023-05-10T01:56:35;6.33;;;5.83;;
9461;SDS011;4769;42.660;23.262;2023-05-10T01:59:05;6.57;;;6.07;;
9461;SDS011;4769;42.660;23.262;2023-05-10T02:01:33;5.87;;;5.33;;
9461;SDS011;4769;42.660;23.262;2023-05-10T02:04:05;6.23;;;5.57;;
9461;SDS011;4769;42.660;23.262;2023-05-10T02:06:32;5.70;;;5.20;;
9461;SDS011;4769;42.660;23.262;2023-05-10T02:08:59;5.87;;;5.33;;
9461;SDS011;4769;42.660;23.262;2023-05-10T02:11:26;5.87;;;5.37;;
9461;SDS011;4769;42.660;23.262;2023-05-10T02:13:53;5.27;;;4.80;;
9461;SDS011;4769;42.660;23.262;2023-05-10T02:16:21;5.33;;;4.93;;
9461;SDS011;4769;42.660;23.262;2023-05-10T02:18:51;7.37;;;5.60;;
9461;SDS011;4769;42.660;23.262;2023-05-10T02:21:20;6.53;;;5.23;;
9461;SDS011;4769;42.660;23.262;2023-05-10T02:23:47;5.70;;;5.30;;
9461;SDS011;4769;42.660;23.262;2023-05-10T02:26:15;5.03;;;4.63;;
9461;SDS011;4769;42.660;23.262;2023-05-10T02:28:42;5.40;;;4.80;;
9461;SDS011;4769;42.660;23.262;2023-05-10T02:31:08;5.77;;;5.10;;
9461;SDS011;4769;42.660;23.262;2023-05-10T02:33:35;6.13;;;5.63;;
9461;SDS011;4769;42.660;23.262;2023-05-10T02:36:02;7.00;;;5.30;;
9461;SDS011;4769;42.660;23.262;2023-05-10T02:38:31;7.33;;;5.40;;
9461;SDS011;4769;42.660;23.262;2023-05-10T02:40:59;6.97;;;5.33;;
9461;SDS011;4769;42.660;23.262;2023-05-10T02:43:27;5.80;;;5.30;;
9461;SDS011;4769;42.660;23.262;2023-05-10T02:45:55;5.80;;;5.03;;
9461;SDS011;4769;42.660;23.262;2023-05-10T02:48:20;6.93;;;5.30;;
9461;SDS011;4769;42.660;23.262;2023-05-10T02:50:46;5.70;;;5.00;;
9461;SDS011;4769;42.660;23.262;2023-05-10T02:53:15;5.30;;;4.80;;
9461;SDS011;4769;42.660;23.262;2023-05-10T02:55:49;6.73;;;5.57;;
9461;SDS011;4769;42.660;23.262;2023-05-10T02:58:17;6.07;;;5.47;;
9461;SDS011;4769;42.660;23.262;2023-05-10T03:00:42;6.50;;;5.80;;
9461;SDS011;4769;42.660;23.262;2023-05-10T03:03:08;6.13;;;5.60;;
9461;SDS011;4769;42.660;23.262;2023-05-10T03:05:34;7.57;;;5.90;;
9461;SDS011;4769;42.660;23.262;2023-05-10T03:08:00;6.63;;;6.00;;
9461;SDS011;4769;42.660;23.262;2023-05-10T03:10:26;7.43;;;6.07;;
9461;SDS011;4769;42.660;23.262;2023-05-10T03:13:05;6.50;;;5.90;;
9461;SDS011;4769;42.660;23.262;2023-05-10T03:15:40;6.33;;;5.73;;
9461;SDS011;4769;42.660;23.262;2023-05-10T03:18:13;6.53;;;5.50;;
9461;SDS011;4769;42.660;23.262;2023-05-10T03:20:48;6.17;;;5.60;;
9461;SDS011;4769;42.660;23.262;2023-05-10T03:23:19;5.90;;;5.40;;
9461;SDS011;4769;42.660;23.262;2023-05-10T03:25:50;6.73;;;6.13;;
9461;SDS011;4769;42.660;23.262;2023-05-10T03:28:20;7.13;;;6.10;;
9461;SDS011;4769;42.660;23.262;2023-05-10T03:30:46;8.37;;;6.03;;
9461;SDS011;4769;42.660;23.262;2023-05-10T03:33:12;6.60;;;5.93;;
9461;SDS011;4769;42.660;23.262;2023-05-10T03:35:38;6.80;;;5.80;;
9461;SDS011;4769;42.660;23.262;2023-05-10T03:38:04;6.23;;;5.63;;
9461;SDS011;4769;42.660;23.262;2023-05-10T03:40:30;6.60;;;6.00;;
9461;SDS011;4769;42.660;23.262;2023-05-10T03:42:55;6.00;;;5.33;;
9461;SDS011;4769;42.660;23.262;2023-05-10T03:45:24;6.33;;;5.40;;
9461;SDS011;4769;42.660;23.262;2023-05-10T03:47:50;6.50;;;5.90;;
9461;SDS011;4769;42.660;23.262;2023-05-10T03:50:15;7.60;;;6.70;;
9461;SDS011;4769;42.660;23.262;2023-05-10T03:52:41;7.00;;;6.17;;
9461;SDS011;4769;42.660;23.262;2023-05-10T03:55:07;9.53;;;6.10;;
9461;SDS011;4769;42.660;23.262;2023-05-10T03:57:33;8.23;;;6.03;;
9461;SDS011;4769;42.660;23.262;2023-05-10T03:59:59;6.27;;;5.63;;
9461;SDS011;4769;42.660;23.262;2023-05-10T04:02:27;6.90;;;6.10;;
9461;SDS011;4769;42.660;23.262;2023-05-10T04:04:53;8.43;;;6.37;;
9461;SDS011;4769;42.660;23.262;2023-05-10T04:07:19;6.57;;;5.93;;
9461;SDS011;4769;42.660;23.262;2023-05-10T04:09:45;10.87;;;6.37;;
9461;SDS011;4769;42.660;23.262;2023-05-10T04:12:10;6.80;;;6.10;;
9461;SDS011;4769;42.660;23.262;2023-05-10T04:14:39;7.27;;;6.00;;
9461;SDS011;4769;42.660;23.262;2023-05-10T04:17:04;6.63;;;6.03;;
9461;SDS011;4769;42.660;23.262;2023-05-10T04:19:33;12.07;;;9.23;;
9461;SDS011;4769;42.660;23.262;2023-05-10T04:21:58;9.50;;;7.60;;
9461;SDS011;4769;42.660;23.262;2023-05-10T04:24:24;7.07;;;6.37;;
9461;SDS011;4769;42.660;23.262;2023-05-10T04:26:50;7.17;;;6.47;;
9461;SDS011;4769;42.660;23.262;2023-05-10T04:29:16;6.70;;;6.00;;
9461;SDS011;4769;42.660;23.262;2023-05-10T04:31:42;8.47;;;7.47;;
9461;SDS011;4769;42.660;23.262;2023-05-10T04:34:07;6.97;;;6.27;;
9461;SDS011;4769;42.660;23.262;2023-05-10T04:36:36;7.87;;;6.97;;
9461;SDS011;4769;42.660;23.262;2023-05-10T04:39:02;7.60;;;6.90;;
9461;SDS011;4769;42.660;23.262;2023-05-10T04:41:28;7.13;;;6.43;;
9461;SDS011;4769;42.660;23.262;2023-05-10T04:43:54;7.23;;;6.60;;
9461;SDS011;4769;42.660;23.262;2023-05-10T04:46:24;7.80;;;6.80;;
9461;SDS011;4769;42.660;23.262;2023-05-10T04:48:50;7.87;;;6.07;;
9461;SDS011;4769;42.660;23.262;2023-05-10T04:51:15;6.97;;;6.37;;
9461;SDS011;4769;42.660;23.262;2023-05-10T04:53:44;8.47;;;6.83;;
9461;SDS011;4769;42.660;23.262;2023-05-10T04:56:09;10.70;;;7.50;;
9461;SDS011;4769;42.660;23.262;2023-05-10T04:58:35;11.67;;;9.47;;
9461;SDS011;4769;42.660;23.262;2023-05-10T05:01:04;10.47;;;8.40;;
9461;SDS011;4769;42.660;23.262;2023-05-10T05:03:30;10.63;;;7.57;;
9461;SDS011;4769;42.660;23.262;2023-05-10T05:05:56;9.17;;;7.30;;
9461;SDS011;4769;42.660;23.262;2023-05-10T05:08:22;7.03;;;6.37;;
9461;SDS011;4769;42.660;23.262;2023-05-10T05:10:50;6.73;;;6.10;;
9461;SDS011;4769;42.660;23.262;2023-05-10T05:13:16;7.87;;;7.07;;
9461;SDS011;4769;42.660;23.262;2023-05-10T05:15:42;7.10;;;6.40;;
9461;SDS011;4769;42.660;23.262;2023-05-10T05:18:07;11.57;;;9.10;;
9461;SDS011;4769;42.660;23.262;2023-05-10T05:20:33;13.17;;;10.27;;
9461;SDS011;4769;42.660;23.262;2023-05-10T05:22:59;10.17;;;9.00;;
9461;SDS011;4769;42.660;23.262;2023-05-10T05:25:25;15.40;;;12.00;;
9461;SDS011;4769;42.660;23.262;2023-05-10T05:27:53;14.93;;;12.93;;
9461;SDS011;4769;42.660;23.262;2023-05-10T05:30:19;10.57;;;9.07;;
9461;SDS011;4769;42.660;23.262;2023-05-10T05:32:45;13.87;;;8.93;;
9461;SDS011;4769;42.660;23.262;2023-05-10T05:35:11;9.63;;;8.73;;
9461;SDS011;4769;42.660;23.262;2023-05-10T05:37:36;11.03;;;9.47;;
9461;SDS011;4769;42.660;23.262;2023-05-10T05:40:02;11.27;;;9.03;;
9461;SDS011;4769;42.660;23.262;2023-05-10T05:42:29;11.10;;;9.80;;
9461;SDS011;4769;42.660;23.262;2023-05-10T05:44:59;9.50;;;8.50;;
9461;SDS011;4769;42.660;23.262;2023-05-10T05:47:25;9.80;;;8.60;;
9461;SDS011;4769;42.660;23.262;2023-05-10T05:49:50;10.47;;;9.10;;
9461;SDS011;4769;42.660;23.262;2023-05-10T05:52:16;9.20;;;8.30;;
9461;SDS011;4769;42.660;23.262;2023-05-10T05:54:42;10.03;;;8.80;;
9461;SDS011;4769;42.660;23.262;2023-05-10T05:57:08;11.00;;;9.83;;
9461;SDS011;4769;42.660;23.262;2023-05-10T05:59:33;9.77;;;8.77;;
9461;SDS011;4769;42.660;23.262;2023-05-10T06:02:02;10.40;;;9.40;;
9461;SDS011;4769;42.660;23.262;2023-05-10T06:04:28;10.17;;;8.93;;
9461;SDS011;4769;42.660;23.262;2023-05-10T06:06:54;11.07;;;9.67;;
9461;SDS011;4769;42.660;23.262;2023-05-10T06:09:19;11.20;;;10.10;;
9461;SDS011;4769;42.660;23.262;2023-05-10T06:11:45;11.60;;;10.33;;
9461;SDS011;4769;42.660;23.262;2023-05-10T06:14:11;11.40;;;10.20;;
9461;SDS011;4769;42.660;23.262;2023-05-10T06:16:36;12.03;;;10.43;;
9461;SDS011;4769;42.660;23.262;2023-05-10T06:19:05;11.07;;;9.93;;
9461;SDS011;4769;42.660;23.262;2023-05-10T06:21:30;14.90;;;11.53;;
9461;SDS011;4769;42.660;23.262;2023-05-10T06:23:56;13.60;;;11.73;;
9461;SDS011;4769;42.660;23.262;2023-05-10T06:26:22;12.80;;;11.23;;
9461;SDS011;4769;42.660;23.262;2023-05-10T06:28:48;13.87;;;11.87;;
9461;SDS011;4769;42.660;23.262;2023-05-10T06:31:14;13.73;;;11.67;;
9461;SDS011;4769;42.660;23.262;2023-05-10T06:33:39;16.90;;;12.30;;
9461;SDS011;4769;42.660;23.262;2023-05-10T06:36:08;12.90;;;11.60;;
9461;SDS011;4769;42.660;23.262;2023-05-10T06:38:34;12.63;;;11.33;;
9461;SDS011;4769;42.660;23.262;2023-05-10T06:40:59;11.63;;;10.43;;
9461;SDS011;4769;42.660;23.262;2023-05-10T06:43:25;14.60;;;12.00;;
9461;SDS011;4769;42.660;23.262;2023-05-10T06:45:51;13.50;;;11.87;;
9461;SDS011;4769;42.660;23.262;2023-05-10T06:48:16;11.57;;;10.33;;
9461;SDS011;4769;42.660;23.262;2023-05-10T06:50:42;12.00;;;9.73;;
9461;SDS011;4769;42.660;23.262;2023-05-10T06:53:11;12.07;;;10.57;;
9461;SDS011;4769;42.660;23.262;2023-05-10T06:55:36;13.33;;;10.17;;
9461;SDS011;4769;42.660;23.262;2023-05-10T06:58:02;12.30;;;10.87;;
9461;SDS011;4769;42.660;23.262;2023-05-10T07:00:28;11.80;;;10.27;;
9461;SDS011;4769;42.660;23.262;2023-05-10T07:02:54;11.57;;;10.47;;
9461;SDS011;4769;42.660;23.262;2023-05-10T07:05:20;12.67;;;11.37;;
9461;SDS011;4769;42.660;23.262;2023-05-10T07:07:46;12.40;;;9.90;;
9461;SDS011;4769;42.660;23.262;2023-05-10T07:10:15;11.43;;;10.23;;
9461;SDS011;4769;42.660;23.262;2023-05-10T07:12:40;11.70;;;10.50;;
9461;SDS011;4769;42.660;23.262;2023-05-10T07:15:07;11.23;;;10.13;;
9461;SDS011;4769;42.660;23.262;2023-05-10T07:17:34;12.40;;;11.10;;
9461;SDS011;4769;42.660;23.262;2023-05-10T07:20:00;10.40;;;9.30;;
9461;SDS011;4769;42.660;23.262;2023-05-10T07:22:26;12.13;;;9.83;;
9461;SDS011;4769;42.660;23.262;2023-05-10T07:24:51;10.13;;;9.10;;
9461;SDS011;4769;42.660;23.262;2023-05-10T07:27:20;11.23;;;9.90;;
9461;SDS011;4769;42.660;23.262;2023-05-10T07:29:45;10.67;;;9.60;;
9461;SDS011;4769;42.660;23.262;2023-05-10T07:32:11;13.17;;;11.00;;
9461;SDS011;4769;42.660;23.262;2023-05-10T07:34:37;11.50;;;9.23;;
9461;SDS011;4769;42.660;23.262;2023-05-10T07:37:03;11.67;;;9.90;;
9461;SDS011;4769;42.660;23.262;2023-05-10T07:39:28;11.13;;;10.03;;
9461;SDS011;4769;42.660;23.262;2023-05-10T07:41:54;10.27;;;9.27;;
9461;SDS011;4769;42.660;23.262;2023-05-10T07:44:23;14.13;;;11.50;;
9461;SDS011;4769;42.660;23.262;2023-05-10T07:46:49;13.77;;;11.20;;
9461;SDS011;4769;42.660;23.262;2023-05-10T07:49:16;14.33;;;10.17;;
9461;SDS011;4769;42.660;23.262;2023-05-10T07:51:41;12.67;;;11.00;;
9461;SDS011;4769;42.660;23.262;2023-05-10T07:54:07;14.43;;;10.73;;
9461;SDS011;4769;42.660;23.262;2023-05-10T07:56:33;13.00;;;10.30;;
9461;SDS011;4769;42.660;23.262;2023-05-10T07:58:59;15.77;;;12.07;;
9461;SDS011;4769;42.660;23.262;2023-05-10T08:01:30;12.73;;;10.60;;
9461;SDS011;4769;42.660;23.262;2023-05-10T08:03:56;13.67;;;11.80;;
9461;SDS011;4769;42.660;23.262;2023-05-10T08:06:22;15.87;;;12.07;;
9461;SDS011;4769;42.660;23.262;2023-05-10T08:08:48;21.50;;;12.00;;
9461;SDS011;4769;42.660;23.262;2023-05-10T08:11:14;18.20;;;11.43;;
9461;SDS011;4769;42.660;23.262;2023-05-10T08:13:40;21.10;;;12.43;;
9461;SDS011;4769;42.660;23.262;2023-05-10T08:16:05;13.97;;;12.00;;
9461;SDS011;4769;42.660;23.262;2023-05-10T08:18:34;13.80;;;11.10;;
9461;SDS011;4769;42.660;23.262;2023-05-10T08:21:00;16.97;;;11.60;;
9461;SDS011;4769;42.660;23.262;2023-05-10T08:23:25;16.43;;;13.07;;
9461;SDS011;4769;42.660;23.262;2023-05-10T08:25:51;15.63;;;12.50;;
9461;SDS011;4769;42.660;23.262;2023-05-10T08:28:17;14.23;;;12.00;;
9461;SDS011;4769;42.660;23.262;2023-05-10T08:30:42;15.37;;;11.67;;
9461;SDS011;4769;42.660;23.262;2023-05-10T08:33:08;12.30;;;11.00;;
9461;SDS011;4769;42.660;23.262;2023-05-10T08:35:36;12.10;;;10.80;;
9461;SDS011;4769;42.660;23.262;2023-05-10T08:38:02;15.80;;;12.10;;
9461;SDS011;4769;42.660;23.262;2023-05-10T08:40:28;14.77;;;11.57;;
9461;SDS011;4769;42.660;23.262;2023-05-10T08:42:55;11.20;;;9.77;;
9461;SDS011;4769;42.660;23.262;2023-05-10T08:45:24;12.33;;;11.07;;
9461;SDS011;4769;42.660;23.262;2023-05-10T08:47:52;15.17;;;10.03;;
9461;SDS011;4769;42.660;23.262;2023-05-10T08:50:19;13.30;;;11.20;;
9461;SDS011;4769;42.660;23.262;2023-05-10T08:52:48;12.57;;;10.25;;
9461;SDS011;4769;42.660;23.262;2023-05-10T08:55:18;11.97;;;10.67;;
9461;SDS011;4769;42.660;23.262;2023-05-10T08:57:43;12.50;;;11.30;;
9461;SDS011;4769;42.660;23.262;2023-05-10T09:00:10;11.43;;;10.23;;
9461;SDS011;4769;42.660;23.262;2023-05-10T09:02:37;13.27;;;11.88;;
9461;SDS011;4769;42.660;23.262;2023-05-10T09:05:03;12.63;;;11.30;;
9461;SDS011;4769;42.660;23.262;2023-05-10T09:07:29;14.82;;;11.57;;
9461;SDS011;4769;42.660;23.262;2023-05-10T09:09:58;12.68;;;11.48;;
9461;SDS011;4769;42.660;23.262;2023-05-10T09:12:24;10.60;;;9.70;;
9461;SDS011;4769;42.660;23.262;2023-05-10T09:14:50;14.73;;;11.38;;
9461;SDS011;4769;42.660;23.262;2023-05-10T09:17:17;11.35;;;10.25;;
9461;SDS011;4769;42.660;23.262;2023-05-10T09:19:44;14.35;;;10.77;;
9461;SDS011;4769;42.660;23.262;2023-05-10T09:22:10;12.57;;;11.38;;
9461;SDS011;4769;42.660;23.262;2023-05-10T09:24:36;12.43;;;10.95;;
9461;SDS011;4769;42.660;23.262;2023-05-10T09:27:05;18.73;;;11.85;;
9461;SDS011;4769;42.660;23.262;2023-05-10T09:29:38;12.63;;;10.32;;
9461;SDS011;4769;42.660;23.262;2023-05-10T09:32:04;10.90;;;9.70;;
9461;SDS011;4769;42.660;23.262;2023-05-10T09:34:30;11.55;;;10.45;;
9461;SDS011;4769;42.660;23.262;2023-05-10T09:36:58;17.08;;;12.60;;
9461;SDS011;4769;42.660;23.262;2023-05-10T09:39:31;11.80;;;10.32;;
9461;SDS011;4769;42.660;23.262;2023-05-10T09:41:57;12.18;;;10.55;;
9461;SDS011;4769;42.660;23.262;2023-05-10T09:44:26;12.73;;;10.50;;
9461;SDS011;4769;42.660;23.262;2023-05-10T09:46:52;13.95;;;10.82;;
9461;SDS011;4769;42.660;23.262;2023-05-10T09:49:18;14.80;;;9.65;;
9461;SDS011;4769;42.660;23.262;2023-05-10T09:51:44;18.63;;;9.52;;
9461;SDS011;4769;42.660;23.262;2023-05-10T09:54:10;12.95;;;9.55;;
9461;SDS011;4769;42.660;23.262;2023-05-10T09:56:36;12.45;;;9.80;;
9461;SDS011;4769;42.660;23.262;2023-05-10T09:59:03;13.23;;;11.80;;
9461;SDS011;4769;42.660;23.262;2023-05-10T10:01:31;14.25;;;11.07;;
9461;SDS011;4769;42.660;23.262;2023-05-10T10:03:58;11.68;;;10.45;;
9461;SDS011;4769;42.660;23.262;2023-05-10T10:06:24;16.38;;;11.75;;
9461;SDS011;4769;42.660;23.262;2023-05-10T10:08:49;16.83;;;11.18;;
9461;SDS011;4769;42.660;23.262;2023-05-10T10:11:16;13.82;;;11.10;;
9461;SDS011;4769;42.660;23.262;2023-05-10T10:13:42;15.60;;;10.82;;
9461;SDS011;4769;42.660;23.262;2023-05-10T10:16:08;12.57;;;9.88;;
9461;SDS011;4769;42.660;23.262;2023-05-10T10:18:37;15.60;;;11.75;;
9461;SDS011;4769;42.660;23.262;2023-05-10T10:21:04;12.55;;;10.38;;
9461;SDS011;4769;42.660;23.262;2023-05-10T10:23:30;13.55;;;9.63;;
9461;SDS011;4769;42.660;23.262;2023-05-10T10:25:56;15.75;;;11.30;;
9461;SDS011;4769;42.660;23.262;2023-05-10T10:28:24;17.05;;;10.02;;
9461;SDS011;4769;42.660;23.262;2023-05-10T10:30:57;12.23;;;10.15;;
9461;SDS011;4769;42.660;23.262;2023-05-10T10:33:49;17.45;;;11.57;;
9461;SDS011;4769;42.660;23.262;2023-05-10T10:36:22;17.65;;;11.30;;
9461;SDS011;4769;42.660;23.262;2023-05-10T10:39:00;11.63;;;9.48;;
9461;SDS011;4769;42.660;23.262;2023-05-10T10:41:30;14.63;;;10.77;;
9461;SDS011;4769;42.660;23.262;2023-05-10T10:47:00;13.20;;;10.23;;
9461;SDS011;4769;42.660;23.262;2023-05-10T10:49:30;10.20;;;9.20;;
9461;SDS011;4769;42.660;23.262;2023-05-10T10:54:59;10.68;;;8.93;;
9461;SDS011;4769;42.660;23.262;2023-05-10T10:57:26;12.27;;;9.32;;
9461;SDS011;4769;42.660;23.262;2023-05-10T10:59:58;11.13;;;8.60;;
9461;SDS011;4769;42.660;23.262;2023-05-10T11:02:50;13.50;;;9.10;;
9461;SDS011;4769;42.660;23.262;2023-05-10T11:08:13;11.23;;;8.07;;
9461;SDS011;4769;42.660;23.262;2023-05-10T11:10:48;9.95;;;8.70;;
9461;SDS011;4769;42.660;23.262;2023-05-10T11:13:27;9.65;;;8.65;;
9461;SDS011;4769;42.660;23.262;2023-05-10T11:15:53;15.88;;;9.13;;
9461;SDS011;4769;42.660;23.262;2023-05-10T11:18:20;9.63;;;8.68;;
9461;SDS011;4769;42.660;23.262;2023-05-10T11:20:52;11.95;;;10.20;;
9461;SDS011;4769;42.660;23.262;2023-05-10T11:23:23;10.18;;;8.88;;
9461;SDS011;4769;42.660;23.262;2023-05-10T11:25:54;14.77;;;9.32;;
9461;SDS011;4769;42.660;23.262;2023-05-10T11:28:20;12.65;;;8.57;;
9461;SDS011;4769;42.660;23.262;2023-05-10T11:30:46;12.45;;;9.32;;
9461;SDS011;4769;42.660;23.262;2023-05-10T11:33:16;11.32;;;10.23;;
9461;SDS011;4769;42.660;23.262;2023-05-10T11:35:46;10.75;;;9.00;;
9461;SDS011;4769;42.660;23.262;2023-05-10T11:38:19;11.05;;;10.05;;
9461;SDS011;4769;42.660;23.262;2023-05-10T11:40:45;9.85;;;8.85;;
9461;SDS011;4769;42.660;23.262;2023-05-10T11:43:10;13.80;;;10.00;;
9461;SDS011;4769;42.660;23.262;2023-05-10T11:45:36;10.27;;;9.25;;
9461;SDS011;4769;42.660;23.262;2023-05-10T11:48:02;10.85;;;9.75;;
9461;SDS011;4769;42.660;23.262;2023-05-10T11:50:28;10.88;;;9.77;;
9461;SDS011;4769;42.660;23.262;2023-05-10T11:52:54;11.73;;;9.90;;
9461;SDS011;4769;42.660;23.262;2023-05-10T11:55:23;10.45;;;9.27;;
9461;SDS011;4769;42.660;23.262;2023-05-10T11:57:51;14.10;;;10.70;;
9461;SDS011;4769;42.660;23.262;2023-05-10T12:00:17;12.73;;;10.82;;
9461;SDS011;4769;42.660;23.262;2023-05-10T12:02:43;11.38;;;9.57;;
9461;SDS011;4769;42.660;23.262;2023-05-10T12:05:09;11.88;;;9.65;;
9461;SDS011;4769;42.660;23.262;2023-05-10T12:07:35;13.07;;;9.25;;
9461;SDS011;4769;42.660;23.262;2023-05-10T12:10:05;12.75;;;9.70;;
9461;SDS011;4769;42.660;23.262;2023-05-10T12:12:40;13.68;;;9.75;;
9461;SDS011;4769;42.660;23.262;2023-05-10T12:15:07;12.40;;;10.10;;
9461;SDS011;4769;42.660;23.262;2023-05-10T12:17:37;15.27;;;10.82;;
9461;SDS011;4769;42.660;23.262;2023-05-10T12:20:16;13.45;;;9.55;;
9461;SDS011;4769;42.660;23.262;2023-05-10T12:22:43;13.75;;;9.48;;
9461;SDS011;4769;42.660;23.262;2023-05-10T12:25:14;10.93;;;9.55;;
9461;SDS011;4769;42.660;23.262;2023-05-10T12:27:42;20.33;;;10.88;;
9461;SDS011;4769;42.660;23.262;2023-05-10T12:30:13;15.00;;;10.00;;
9461;SDS011;4769;42.660;23.262;2023-05-10T12:32:44;12.02;;;10.10;;
9461;SDS011;4769;42.660;23.262;2023-05-10T12:35:10;10.40;;;9.38;;
9461;SDS011;4769;42.660;23.262;2023-05-10T12:37:36;11.73;;;10.15;;
9461;SDS011;4769;42.660;23.262;2023-05-10T12:40:02;12.93;;;9.95;;
9461;SDS011;4769;42.660;23.262;2023-05-10T12:42:28;10.45;;;9.45;;
9461;SDS011;4769;42.660;23.262;2023-05-10T12:44:57;13.60;;;11.03;;
9461;SDS011;4769;42.660;23.262;2023-05-10T12:47:23;14.25;;;10.23;;
9461;SDS011;4769;42.660;23.262;2023-05-10T12:49:48;15.60;;;10.43;;
9461;SDS011;4769;42.660;23.262;2023-05-10T12:52:14;10.52;;;9.38;;
9461;SDS011;4769;42.660;23.262;2023-05-10T12:54:40;13.10;;;11.30;;
9461;SDS011;4769;42.660;23.262;2023-05-10T12:57:05;11.38;;;10.15;;
9461;SDS011;4769;42.660;23.262;2023-05-10T12:59:31;11.18;;;10.10;;
9461;SDS011;4769;42.660;23.262;2023-05-10T13:01:59;10.75;;;9.10;;
9461;SDS011;4769;42.660;23.262;2023-05-10T13:04:25;11.43;;;10.05;;
9461;SDS011;4769;42.660;23.262;2023-05-10T13:06:51;11.30;;;10.10;;
9461;SDS011;4769;42.660;23.262;2023-05-10T13:09:17;11.25;;;10.05;;
9461;SDS011;4769;42.660;23.262;2023-05-10T13:11:42;11.40;;;10.35;;
9461;SDS011;4769;42.660;23.262;2023-05-10T13:14:08;11.93;;;9.70;;
9461;SDS011;4769;42.660;23.262;2023-05-10T13:16:34;10.20;;;9.02;;
9461;SDS011;4769;42.660;23.262;2023-05-10T13:19:02;10.77;;;9.70;;
9461;SDS011;4769;42.660;23.262;2023-05-10T13:21:28;10.82;;;9.73;;
9461;SDS011;4769;42.660;23.262;2023-05-10T13:23:54;12.07;;;10.27;;
9461;SDS011;4769;42.660;23.262;2023-05-10T13:26:19;11.00;;;9.95;;
9461;SDS011;4769;42.660;23.262;2023-05-10T13:28:45;11.38;;;9.30;;
9461;SDS011;4769;42.660;23.262;2023-05-10T13:31:11;10.13;;;9.10;;
9461;SDS011;4769;42.660;23.262;2023-05-10T13:33:36;9.57;;;8.45;;
9461;SDS011;4769;42.660;23.262;2023-05-10T13:36:05;11.38;;;9.23;;
9461;SDS011;4769;42.660;23.262;2023-05-10T13:38:31;10.75;;;9.60;;
9461;SDS011;4769;42.660;23.262;2023-05-10T13:40:57;10.85;;;9.85;;
9461;SDS011;4769;42.660;23.262;2023-05-10T13:43:23;14.48;;;10.20;;
9461;SDS011;4769;42.660;23.262;2023-05-10T13:45:49;12.97;;;9.77;;
9461;SDS011;4769;42.660;23.262;2023-05-10T13:48:15;14.15;;;10.10;;
9461;SDS011;4769;42.660;23.262;2023-05-10T13:50:40;13.23;;;10.23;;
9461;SDS011;4769;42.660;23.262;2023-05-10T13:53:09;12.25;;;10.13;;
9461;SDS011;4769;42.660;23.262;2023-05-10T13:55:34;11.13;;;9.68;;
9461;SDS011;4769;42.660;23.262;2023-05-10T13:58:00;11.25;;;9.48;;
9461;SDS011;4769;42.660;23.262;2023-05-10T14:00:26;17.25;;;10.75;;
9461;SDS011;4769;42.660;23.262;2023-05-10T14:02:51;14.45;;;10.07;;
9461;SDS011;4769;42.660;23.262;2023-05-10T14:05:17;13.38;;;9.70;;
9461;SDS011;4769;42.660;23.262;2023-05-10T14:07:43;10.98;;;9.85;;
9461;SDS011;4769;42.660;23.262;2023-05-10T14:10:12;13.15;;;9.95;;
9461;SDS011;4769;42.660;23.262;2023-05-10T14:12:37;12.18;;;10.35;;
9461;SDS011;4769;42.660;23.262;2023-05-10T14:15:03;14.43;;;9.98;;
9461;SDS011;4769;42.660;23.262;2023-05-10T14:17:30;16.85;;;9.65;;
9461;SDS011;4769;42.660;23.262;2023-05-10T14:19:55;12.00;;;10.43;;
9461;SDS011;4769;42.660;23.262;2023-05-10T14:22:21;11.80;;;9.60;;
9461;SDS011;4769;42.660;23.262;2023-05-10T14:24:47;12.85;;;10.65;;
9461;SDS011;4769;42.660;23.262;2023-05-10T14:27:15;12.38;;;9.52;;
9461;SDS011;4769;42.660;23.262;2023-05-10T14:29:41;14.57;;;9.82;;
9461;SDS011;4769;42.660;23.262;2023-05-10T14:32:07;9.52;;;8.55;;
9461;SDS011;4769;42.660;23.262;2023-05-10T14:34:36;11.85;;;9.77;;
9461;SDS011;4769;42.660;23.262;2023-05-10T14:37:01;10.75;;;9.63;;
9461;SDS011;4769;42.660;23.262;2023-05-10T14:39:27;10.75;;;9.68;;
9461;SDS011;4769;42.660;23.262;2023-05-10T14:41:53;10.57;;;9.57;;
9461;SDS011;4769;42.660;23.262;2023-05-10T14:44:21;10.30;;;9.35;;
9461;SDS011;4769;42.660;23.262;2023-05-10T14:46:47;11.75;;;10.55;;
9461;SDS011;4769;42.660;23.262;2023-05-10T14:49:13;14.75;;;10.40;;
9461;SDS011;4769;42.660;23.262;2023-05-10T14:51:39;12.38;;;9.57;;
9461;SDS011;4769;42.660;23.262;2023-05-10T14:54:04;11.63;;;10.07;;
9461;SDS011;4769;42.660;23.262;2023-05-10T14:56:30;14.55;;;10.55;;
9461;SDS011;4769;42.660;23.262;2023-05-10T14:58:56;15.13;;;10.70;;
9461;SDS011;4769;42.660;23.262;2023-05-10T15:01:25;15.05;;;10.70;;